createdAt,value
2022-11-13T00:02:22.183Z,102782.88
2022-11-13T00:07:23.755Z,102776.78
2022-11-13T00:12:25.293Z,102769.94
2022-11-13T00:17:28.357Z,102764.16
2022-11-13T00:22:29.817Z,102755.88
2022-11-13T00:27:32.083Z,102751.19
2022-11-13T00:32:33.639Z,102741.81
2022-11-13T00:37:35.111Z,102735.03
2022-11-13T00:42:36.586Z,102731.22
2022-11-13T00:47:38.059Z,102731.88
2022-11-13T00:52:39.520Z,102733.16
2022-11-13T00:57:40.977Z,102733.47
2022-11-13T01:02:42.480Z,102718.28
2022-11-13T01:07:44.016Z,102723.00
2022-11-13T01:12:45.509Z,102717.66
2022-11-13T01:17:46.988Z,102708.38
2022-11-13T01:22:48.541Z,102706.38
2022-11-13T01:27:50.088Z,102704.31
2022-11-13T01:32:51.629Z,102713.53
2022-11-13T01:37:53.115Z,102718.59
2022-11-13T01:42:54.584Z,102715.69
2022-11-13T01:47:56.059Z,102720.56
2022-11-13T01:52:57.516Z,102704.16
2022-11-13T01:58:00.039Z,102698.63
2022-11-13T02:03:01.793Z,102685.34
2022-11-13T02:08:03.401Z,102676.66
2022-11-13T02:13:05.410Z,102674.13
2022-11-13T02:18:07.347Z,102661.19
2022-11-13T02:23:19.832Z,102660.72
2022-11-13T02:28:21.514Z,102668.38
2022-11-13T02:33:26.919Z,102669.56
2022-11-13T02:38:28.676Z,102664.41
2022-11-13T02:43:30.433Z,102676.19
2022-11-13T02:48:31.917Z,102671.03
2022-11-13T02:53:33.456Z,102669.63
2022-11-13T02:58:34.907Z,102652.78
2022-11-13T03:08:57.785Z,102647.66
2022-11-13T03:13:59.251Z,102648.91
2022-11-13T03:19:00.715Z,102638.44
2022-11-13T03:24:02.532Z,102631.38
2022-11-13T03:29:04.046Z,102634.31
2022-11-13T03:34:05.540Z,102631.16
2022-11-13T03:39:07.028Z,102616.59
2022-11-13T03:44:08.564Z,102606.16
2022-11-13T03:49:10.029Z,102612.66
2022-11-13T03:54:11.494Z,102594.50
2022-11-13T03:59:12.973Z,102606.34
2022-11-13T04:04:15.482Z,102611.25
2022-11-13T04:09:16.982Z,102605.16
2022-11-13T04:14:18.445Z,102603.00
2022-11-13T04:19:19.911Z,102601.47
2022-11-13T04:24:21.512Z,102602.44
2022-11-13T04:29:22.955Z,102597.22
2022-11-13T04:34:24.424Z,102595.81
2022-11-13T04:39:25.896Z,102587.84
2022-11-13T04:44:27.424Z,102595.25
2022-11-13T04:49:28.919Z,102591.34
2022-11-13T04:54:30.392Z,102582.00
2022-11-13T04:59:32.027Z,102586.97
2022-11-13T05:04:33.590Z,102579.38
2022-11-13T05:09:35.096Z,102570.66
2022-11-13T05:14:40.560Z,102573.69
2022-11-13T05:19:42.050Z,102566.84
2022-11-13T05:24:43.555Z,102570.75
2022-11-13T05:29:45.119Z,102564.66
2022-11-13T05:34:46.596Z,102559.44
2022-11-13T05:39:48.046Z,102560.31
2022-11-13T05:44:49.498Z,102547.69
2022-11-13T05:49:50.968Z,102549.66
2022-11-13T05:54:52.460Z,102547.91
2022-11-13T05:59:53.938Z,102543.47
2022-11-13T06:04:56.501Z,102537.47
2022-11-13T06:09:58.173Z,102537.78
2022-11-13T06:14:59.626Z,102548.19
2022-11-13T06:20:01.102Z,102544.03
2022-11-13T06:25:02.555Z,102539.91
2022-11-13T06:30:04.429Z,102533.69
2022-11-13T06:35:06.095Z,102533.13
2022-11-13T06:40:08.309Z,102538.22
2022-11-13T06:45:10.199Z,102536.81
2022-11-13T06:50:11.756Z,102530.41
2022-11-13T06:55:13.310Z,102522.81
2022-11-13T07:00:15.337Z,102509.91
2022-11-13T07:05:17.800Z,102509.25
2022-11-13T07:10:19.262Z,102493.69
2022-11-13T07:15:20.729Z,102507.84
2022-11-13T07:20:22.203Z,102506.56
2022-11-13T07:25:24.027Z,102518.50
2022-11-13T07:30:26.200Z,102516.13
2022-11-13T07:35:27.763Z,102515.34
2022-11-13T07:40:29.308Z,102510.22
2022-11-13T07:45:30.859Z,102518.25
2022-11-13T07:50:36.763Z,102512.78
2022-11-13T07:55:38.620Z,102508.06
2022-11-13T08:00:40.226Z,102500.59
2022-11-13T08:05:42.195Z,102499.72
2022-11-13T08:10:45.160Z,102501.75
2022-11-13T08:15:46.645Z,102497.13
2022-11-13T08:20:48.123Z,102493.56
2022-11-13T08:25:49.760Z,102486.16
2022-11-13T08:30:51.197Z,102494.00
2022-11-13T08:35:57.753Z,102487.41
2022-11-13T08:41:03.262Z,102496.44
2022-11-13T08:46:08.899Z,102495.84
2022-11-13T08:51:10.401Z,102478.31
2022-11-13T08:56:11.980Z,102467.72
2022-11-13T09:01:13.509Z,102468.69
2022-11-13T09:06:15.282Z,102458.38
2022-11-13T09:11:17.247Z,102461.06
2022-11-13T09:16:18.744Z,102465.31
2022-11-13T09:21:20.255Z,102461.09
2022-11-13T09:26:21.809Z,102461.88
2022-11-13T09:31:23.300Z,102458.69
2022-11-13T09:36:24.793Z,102447.94
2022-11-13T09:41:29.592Z,102448.00
2022-11-13T09:46:52.898Z,102455.50
2022-11-13T09:51:58.520Z,102445.44
2022-11-13T09:57:19.362Z,102443.56
2022-11-13T10:02:33.731Z,102433.69
2022-11-13T10:07:41.095Z,102434.59
2022-11-13T10:12:44.493Z,102437.13
2022-11-13T10:17:56.808Z,102431.00
2022-11-13T10:23:12.745Z,102428.88
2022-11-13T10:33:48.654Z,102422.00
2022-11-13T10:38:58.451Z,102421.34
2022-11-13T10:44:21.013Z,102419.06
2022-11-13T10:49:29.037Z,102396.28
2022-11-13T10:54:32.398Z,102391.84
2022-11-13T10:59:45.126Z,102379.72
2022-11-13T11:04:46.702Z,102382.19
2022-11-13T11:09:50.750Z,102368.25
2022-11-13T11:15:00.986Z,102359.09
2022-11-13T11:20:29.336Z,102352.72
2022-11-13T11:25:40.744Z,102352.41
2022-11-13T11:30:51.428Z,102337.19
2022-11-13T11:36:02.361Z,102333.34
2022-11-13T11:41:15.985Z,102326.31
2022-11-13T11:46:23.795Z,102326.31
2022-11-13T11:51:38.496Z,102311.38
2022-11-13T11:56:49.031Z,102303.91
2022-11-13T12:01:59.306Z,102305.47
2022-11-13T12:07:22.205Z,102294.00
2022-11-13T12:12:49.790Z,102283.34
2022-11-13T12:18:14.921Z,102272.97
2022-11-13T12:23:22.122Z,102277.25
2022-11-13T12:28:41.161Z,102268.34
2022-11-13T12:34:01.083Z,102258.09
2022-11-13T12:39:31.017Z,102251.06
2022-11-13T12:44:44.928Z,102241.41
2022-11-13T12:49:46.422Z,102233.47
2022-11-13T12:54:47.993Z,102234.50
2022-11-13T12:59:57.196Z,102228.16
2022-11-13T13:05:13.876Z,102226.44
2022-11-13T13:10:34.805Z,102210.56
2022-11-13T13:15:38.873Z,102215.06
2022-11-13T13:20:46.196Z,102198.75
2022-11-13T13:25:47.704Z,102196.44
2022-11-13T13:30:58.168Z,102182.75
2022-11-13T13:36:24.752Z,102172.38
2022-11-13T13:41:42.588Z,102168.06
2022-11-13T13:46:43.935Z,102166.03
2022-11-13T13:51:49.217Z,102170.34
2022-11-13T13:56:50.937Z,102168.34
2022-11-13T14:01:58.548Z,102169.81
2022-11-13T14:07:02.050Z,102165.19
2022-11-13T14:12:17.176Z,102154.66
2022-11-13T14:17:24.408Z,102168.19
2022-11-13T14:22:26.822Z,102162.63
2022-11-13T14:27:29.044Z,102139.97
2022-11-13T14:32:33.328Z,102138.41
2022-11-13T14:37:39.670Z,102145.72
2022-11-13T14:42:46.641Z,102147.06
2022-11-13T14:47:58.076Z,102141.72
2022-11-13T14:53:07.880Z,102140.59
2022-11-13T14:58:14.682Z,102137.44
2022-11-13T15:03:16.353Z,102124.47
2022-11-13T15:08:17.899Z,102116.84
2022-11-13T15:13:19.501Z,102119.00
2022-11-13T15:18:21.033Z,102110.22
2022-11-13T15:23:25.378Z,102117.44
2022-11-13T15:28:26.985Z,102103.19
2022-11-13T15:33:28.775Z,102105.19
2022-11-13T15:38:30.482Z,102099.59
2022-11-13T15:43:32.133Z,102079.72
2022-11-13T15:48:33.721Z,102093.56
2022-11-13T15:53:35.275Z,102078.75
2022-11-13T15:58:36.853Z,102072.38
2022-11-13T16:03:40.265Z,102072.69
2022-11-13T16:08:43.436Z,102060.06
2022-11-13T16:13:46.437Z,102056.88
2022-11-13T16:18:50.168Z,102050.06
2022-11-13T16:23:51.710Z,102031.53
2022-11-13T16:34:16.426Z,102026.22
2022-11-13T16:39:18.221Z,102026.22
2022-11-13T16:44:19.691Z,102041.16
2022-11-13T16:49:21.136Z,102026.22
2022-11-13T16:54:22.621Z,102019.91
2022-11-13T16:59:24.143Z,102025.38
2022-11-13T17:04:26.716Z,102014.44
2022-11-13T17:09:29.268Z,102004.34
2022-11-13T17:14:30.719Z,102008.31
2022-11-13T17:19:32.363Z,101994.09
2022-11-13T17:24:33.847Z,101993.72
2022-11-13T17:29:35.315Z,101989.84
2022-11-13T17:34:36.795Z,101983.94
2022-11-13T17:39:38.290Z,101972.84
2022-11-13T17:44:39.809Z,101973.81
2022-11-13T17:49:41.294Z,101966.19
2022-11-13T17:54:42.799Z,101963.63
2022-11-13T17:59:44.249Z,101964.34
2022-11-13T18:04:45.769Z,101953.44
2022-11-13T18:09:48.248Z,101954.84
2022-11-13T18:14:52.588Z,101957.59
2022-11-13T18:20:00.398Z,101950.13
2022-11-13T18:25:03.558Z,101949.75
2022-11-13T18:30:05.603Z,101944.41
2022-11-13T18:35:07.556Z,101960.94
2022-11-13T18:40:09.752Z,101956.75
2022-11-13T18:45:11.860Z,101960.50
2022-11-13T18:50:13.378Z,101958.06
2022-11-13T18:55:14.909Z,101950.88
2022-11-13T19:00:17.412Z,101948.97
2022-11-13T19:05:18.883Z,101947.53
2022-11-13T19:10:20.455Z,101941.31
2022-11-13T19:15:22.054Z,101938.00
2022-11-13T19:20:23.608Z,101941.13
2022-11-13T19:25:26.216Z,101934.38
2022-11-13T19:30:27.695Z,101930.19
2022-11-13T19:35:29.252Z,101918.69
2022-11-13T19:40:30.793Z,101905.75
2022-11-13T19:45:32.448Z,101915.19
2022-11-13T19:50:33.934Z,101908.44
2022-11-13T19:55:35.586Z,101892.34
2022-11-13T20:00:37.293Z,101898.50
2022-11-13T20:05:44.321Z,101891.75
2022-11-13T20:10:45.759Z,101887.72
2022-11-13T20:15:54.679Z,101884.66
2022-11-13T20:20:56.523Z,101883.34
2022-11-13T20:25:59.981Z,101884.59
2022-11-13T20:31:05.684Z,101870.06
2022-11-13T20:36:07.483Z,101869.75
2022-11-13T20:41:11.322Z,101866.59
2022-11-13T20:46:14.731Z,101852.50
2022-11-13T20:51:21.551Z,101857.22
2022-11-13T20:56:25.169Z,101853.88
2022-11-13T21:01:26.840Z,101855.69
2022-11-13T21:06:28.421Z,101851.94
2022-11-13T21:11:29.937Z,101848.84
2022-11-13T21:16:31.772Z,101841.09
2022-11-13T21:21:33.285Z,101840.75
2022-11-13T21:26:34.768Z,101837.56
2022-11-13T21:31:36.265Z,101829.63
2022-11-13T21:36:37.768Z,101819.16
2022-11-13T21:41:39.250Z,101809.91
2022-11-13T21:46:45.601Z,101800.31
2022-11-13T21:51:47.052Z,101787.34
2022-11-13T21:56:48.538Z,101790.63
2022-11-13T22:01:50.235Z,101788.00
2022-11-13T22:06:52.617Z,101786.22
2022-11-13T22:11:54.165Z,101800.59
2022-11-13T22:16:55.638Z,101795.06
2022-11-13T22:21:57.127Z,101787.69
2022-11-13T22:26:58.597Z,101776.72
2022-11-13T22:32:00.050Z,101779.34
2022-11-13T22:37:01.518Z,101778.84
2022-11-13T22:42:03.003Z,101769.88
2022-11-13T22:47:04.553Z,101778.53
2022-11-13T22:52:06.040Z,101768.44
2022-11-13T22:57:07.521Z,101764.50
2022-11-13T23:02:08.995Z,101766.09
2022-11-13T23:07:10.510Z,101765.63
2022-11-13T23:12:11.982Z,101759.56
2022-11-13T23:17:13.456Z,101761.44
2022-11-13T23:22:14.953Z,101766.72
2022-11-13T23:27:16.447Z,101753.03
2022-11-13T23:32:17.931Z,101745.47
2022-11-13T23:37:19.404Z,101754.47
2022-11-13T23:42:39.285Z,101748.53
2022-11-13T23:47:43.535Z,101742.06
2022-11-13T23:52:45.072Z,101744.13
2022-11-13T23:57:46.970Z,101725.59
